sensor_id;sensor_type;location;lat;lon;timestamp;temperature;humidity
25949;DHT22;13961;51.178;4.448;2023-08-08T00:01:26;15.30;99.90
25949;DHT22;13961;51.178;4.448;2023-08-08T00:03:52;15.20;99.90
25949;DHT22;13961;51.178;4.448;2023-08-08T00:06:17;15.20;99.90
25949;DHT22;13961;51.178;4.448;2023-08-08T00:08:43;15.30;99.90
25949;DHT22;13961;51.178;4.448;2023-08-08T00:11:08;15.30;99.90
25949;DHT22;13961;51.178;4.448;2023-08-08T00:13:34;15.30;99.90
25949;DHT22;13961;51.178;4.448;2023-08-08T00:16:00;15.40;99.90
25949;DHT22;13961;51.178;4.448;2023-08-08T00:18:26;15.50;99.90
25949;DHT22;13961;51.178;4.448;2023-08-08T00:20:51;15.30;99.90
25949;DHT22;13961;51.178;4.448;2023-08-08T00:23:18;15.30;99.90
25949;DHT22;13961;51.178;4.448;2023-08-08T00:25:44;15.30;99.90
25949;DHT22;13961;51.178;4.448;2023-08-08T00:28:15;15.20;99.90
25949;DHT22;13961;51.178;4.448;2023-08-08T00:30:41;15.30;99.90
25949;DHT22;13961;51.178;4.448;2023-08-08T00:33:07;15.40;99.90
25949;DHT22;13961;51.178;4.448;2023-08-08T00:35:32;15.40;99.90
25949;DHT22;13961;51.178;4.448;2023-08-08T00:37:58;15.10;99.90
25949;DHT22;13961;51.178;4.448;2023-08-08T00:40:23;15.10;99.90
25949;DHT22;13961;51.178;4.448;2023-08-08T00:42:49;15.10;99.90
25949;DHT22;13961;51.178;4.448;2023-08-08T00:45:15;15.10;99.90
25949;DHT22;13961;51.178;4.448;2023-08-08T00:47:41;15.10;99.90
25949;DHT22;13961;51.178;4.448;2023-08-08T00:50:07;15.20;99.90
25949;DHT22;13961;51.178;4.448;2023-08-08T00:52:34;15.20;99.90
25949;DHT22;13961;51.178;4.448;2023-08-08T00:55:01;15.10;99.90
25949;DHT22;13961;51.178;4.448;2023-08-08T00:57:27;14.90;99.90
25949;DHT22;13961;51.178;4.448;2023-08-08T00:59:53;15.00;99.90
25949;DHT22;13961;51.178;4.448;2023-08-08T01:02:20;15.10;99.90
25949;DHT22;13961;51.178;4.448;2023-08-08T01:04:46;15.10;99.90
25949;DHT22;13961;51.178;4.448;2023-08-08T01:10:09;15.10;99.90
25949;DHT22;13961;51.178;4.448;2023-08-08T01:12:50;15.00;99.90
25949;DHT22;13961;51.178;4.448;2023-08-08T01:15:17;15.10;99.90
25949;DHT22;13961;51.178;4.448;2023-08-08T01:17:44;15.10;99.90
25949;DHT22;13961;51.178;4.448;2023-08-08T01:20:11;14.90;99.90
25949;DHT22;13961;51.178;4.448;2023-08-08T01:23:09;14.90;99.90
25949;DHT22;13961;51.178;4.448;2023-08-08T01:25:39;15.00;99.90
25949;DHT22;13961;51.178;4.448;2023-08-08T01:28:06;15.00;99.90
25949;DHT22;13961;51.178;4.448;2023-08-08T01:30:32;15.20;99.90
25949;DHT22;13961;51.178;4.448;2023-08-08T01:32:58;15.30;99.90
25949;DHT22;13961;51.178;4.448;2023-08-08T01:35:26;15.30;99.90
25949;DHT22;13961;51.178;4.448;2023-08-08T01:38:00;15.20;99.90
25949;DHT22;13961;51.178;4.448;2023-08-08T01:40:29;15.10;99.90
25949;DHT22;13961;51.178;4.448;2023-08-08T01:42:56;15.00;99.90
25949;DHT22;13961;51.178;4.448;2023-08-08T01:45:22;15.00;99.90
25949;DHT22;13961;51.178;4.448;2023-08-08T01:47:51;15.00;99.90
25949;DHT22;13961;51.178;4.448;2023-08-08T01:50:17;15.10;99.90
25949;DHT22;13961;51.178;4.448;2023-08-08T01:52:42;15.10;99.90
25949;DHT22;13961;51.178;4.448;2023-08-08T01:55:09;15.10;99.90
25949;DHT22;13961;51.178;4.448;2023-08-08T01:57:34;15.10;99.90
25949;DHT22;13961;51.178;4.448;2023-08-08T02:00:00;15.00;99.90
25949;DHT22;13961;51.178;4.448;2023-08-08T02:02:27;14.80;99.90
25949;DHT22;13961;51.178;4.448;2023-08-08T02:04:53;14.80;99.90
25949;DHT22;13961;51.178;4.448;2023-08-08T02:07:18;14.90;99.90
25949;DHT22;13961;51.178;4.448;2023-08-08T02:09:44;14.90;99.90
25949;DHT22;13961;51.178;4.448;2023-08-08T02:12:12;14.90;99.90
25949;DHT22;13961;51.178;4.448;2023-08-08T02:14:38;14.80;99.90
25949;DHT22;13961;51.178;4.448;2023-08-08T02:17:03;14.80;99.90
25949;DHT22;13961;51.178;4.448;2023-08-08T02:19:29;14.70;99.90
25949;DHT22;13961;51.178;4.448;2023-08-08T02:21:56;14.60;99.90
25949;DHT22;13961;51.178;4.448;2023-08-08T02:24:23;14.70;99.90
25949;DHT22;13961;51.178;4.448;2023-08-08T02:26:50;14.80;99.90
25949;DHT22;13961;51.178;4.448;2023-08-08T02:29:15;14.70;99.90
25949;DHT22;13961;51.178;4.448;2023-08-08T02:31:41;14.80;99.90
25949;DHT22;13961;51.178;4.448;2023-08-08T02:34:07;14.80;99.90
25949;DHT22;13961;51.178;4.448;2023-08-08T02:36:32;14.90;99.90
25949;DHT22;13961;51.178;4.448;2023-08-08T02:38:59;14.90;99.90
25949;DHT22;13961;51.178;4.448;2023-08-08T02:41:24;14.90;99.90
25949;DHT22;13961;51.178;4.448;2023-08-08T02:43:50;14.70;99.90
25949;DHT22;13961;51.178;4.448;2023-08-08T02:46:16;14.70;99.90
25949;DHT22;13961;51.178;4.448;2023-08-08T02:48:41;14.80;99.90
25949;DHT22;13961;51.178;4.448;2023-08-08T02:51:07;14.70;99.90
25949;DHT22;13961;51.178;4.448;2023-08-08T02:53:33;14.70;99.90
25949;DHT22;13961;51.178;4.448;2023-08-08T02:55:58;14.80;99.90
25949;DHT22;13961;51.178;4.448;2023-08-08T02:58:24;14.70;99.90
25949;DHT22;13961;51.178;4.448;2023-08-08T03:00:51;14.80;99.90
25949;DHT22;13961;51.178;4.448;2023-08-08T03:03:17;14.90;99.90
25949;DHT22;13961;51.178;4.448;2023-08-08T03:05:44;14.90;99.90
25949;DHT22;13961;51.178;4.448;2023-08-08T03:08:11;14.80;99.90
25949;DHT22;13961;51.178;4.448;2023-08-08T03:10:38;14.80;99.90
25949;DHT22;13961;51.178;4.448;2023-08-08T03:13:04;14.70;99.90
25949;DHT22;13961;51.178;4.448;2023-08-08T03:15:30;14.60;99.90
25949;DHT22;13961;51.178;4.448;2023-08-08T03:17:56;14.60;99.90
25949;DHT22;13961;51.178;4.448;2023-08-08T03:20:22;14.60;99.90
25949;DHT22;13961;51.178;4.448;2023-08-08T03:22:47;14.60;99.90
25949;DHT22;13961;51.178;4.448;2023-08-08T03:25:13;14.60;99.90
25949;DHT22;13961;51.178;4.448;2023-08-08T03:27:39;14.60;99.90
25949;DHT22;13961;51.178;4.448;2023-08-08T03:30:05;14.50;99.90
25949;DHT22;13961;51.178;4.448;2023-08-08T03:32:31;14.50;99.90
25949;DHT22;13961;51.178;4.448;2023-08-08T03:34:57;14.50;99.90
25949;DHT22;13961;51.178;4.448;2023-08-08T03:37:22;14.40;99.90
25949;DHT22;13961;51.178;4.448;2023-08-08T03:39:48;14.40;99.90
25949;DHT22;13961;51.178;4.448;2023-08-08T03:42:14;14.30;99.90
25949;DHT22;13961;51.178;4.448;2023-08-08T03:44:41;14.40;99.90
25949;DHT22;13961;51.178;4.448;2023-08-08T03:47:07;14.50;99.90
25949;DHT22;13961;51.178;4.448;2023-08-08T03:49:33;14.50;99.90
25949;DHT22;13961;51.178;4.448;2023-08-08T03:51:58;14.40;99.90
25949;DHT22;13961;51.178;4.448;2023-08-08T03:54:24;14.50;99.90
25949;DHT22;13961;51.178;4.448;2023-08-08T03:56:52;14.40;99.90
25949;DHT22;13961;51.178;4.448;2023-08-08T03:59:17;14.40;99.90
25949;DHT22;13961;51.178;4.448;2023-08-08T04:01:43;14.30;99.90
25949;DHT22;13961;51.178;4.448;2023-08-08T04:04:09;14.40;99.90
25949;DHT22;13961;51.178;4.448;2023-08-08T04:06:34;14.30;99.90
25949;DHT22;13961;51.178;4.448;2023-08-08T04:09:00;14.40;99.90
25949;DHT22;13961;51.178;4.448;2023-08-08T04:11:26;14.40;99.90
25949;DHT22;13961;51.178;4.448;2023-08-08T04:13:52;14.50;99.90
25949;DHT22;13961;51.178;4.448;2023-08-08T04:16:18;14.50;99.90
25949;DHT22;13961;51.178;4.448;2023-08-08T04:18:43;14.60;99.90
25949;DHT22;13961;51.178;4.448;2023-08-08T04:21:09;14.50;99.90
25949;DHT22;13961;51.178;4.448;2023-08-08T04:23:35;14.60;99.90
25949;DHT22;13961;51.178;4.448;2023-08-08T04:26:00;14.70;99.90
25949;DHT22;13961;51.178;4.448;2023-08-08T04:28:26;14.60;99.90
25949;DHT22;13961;51.178;4.448;2023-08-08T04:30:52;14.70;99.90
25949;DHT22;13961;51.178;4.448;2023-08-08T04:33:17;14.70;99.90
25949;DHT22;13961;51.178;4.448;2023-08-08T04:35:43;14.70;99.90
25949;DHT22;13961;51.178;4.448;2023-08-08T04:38:09;14.50;99.90
25949;DHT22;13961;51.178;4.448;2023-08-08T04:40:34;14.50;99.90
25949;DHT22;13961;51.178;4.448;2023-08-08T04:43:00;14.40;99.90
25949;DHT22;13961;51.178;4.448;2023-08-08T04:45:26;14.40;99.90
25949;DHT22;13961;51.178;4.448;2023-08-08T04:47:54;14.50;99.90
25949;DHT22;13961;51.178;4.448;2023-08-08T04:50:20;14.50;99.90
25949;DHT22;13961;51.178;4.448;2023-08-08T04:52:46;14.60;99.90
25949;DHT22;13961;51.178;4.448;2023-08-08T04:55:12;14.70;99.90
25949;DHT22;13961;51.178;4.448;2023-08-08T04:57:37;14.80;99.90
25949;DHT22;13961;51.178;4.448;2023-08-08T05:00:03;14.70;99.90
25949;DHT22;13961;51.178;4.448;2023-08-08T05:02:32;14.70;99.90
25949;DHT22;13961;51.178;4.448;2023-08-08T05:04:58;14.60;99.90
25949;DHT22;13961;51.178;4.448;2023-08-08T05:07:23;14.70;99.90
25949;DHT22;13961;51.178;4.448;2023-08-08T05:09:49;14.70;99.90
25949;DHT22;13961;51.178;4.448;2023-08-08T05:12:14;14.80;99.90
25949;DHT22;13961;51.178;4.448;2023-08-08T05:14:40;14.80;99.90
25949;DHT22;13961;51.178;4.448;2023-08-08T05:17:06;14.70;99.90
25949;DHT22;13961;51.178;4.448;2023-08-08T05:19:32;14.50;99.90
25949;DHT22;13961;51.178;4.448;2023-08-08T05:21:57;14.50;99.90
25949;DHT22;13961;51.178;4.448;2023-08-08T05:24:24;14.60;99.90
25949;DHT22;13961;51.178;4.448;2023-08-08T05:26:50;14.70;99.90
25949;DHT22;13961;51.178;4.448;2023-08-08T05:29:15;14.80;99.90
25949;DHT22;13961;51.178;4.448;2023-08-08T05:31:41;14.80;99.90
25949;DHT22;13961;51.178;4.448;2023-08-08T05:34:07;14.80;99.90
25949;DHT22;13961;51.178;4.448;2023-08-08T05:36:32;14.80;99.90
25949;DHT22;13961;51.178;4.448;2023-08-08T05:38:58;15.00;99.90
25949;DHT22;13961;51.178;4.448;2023-08-08T05:41:25;15.00;99.90
25949;DHT22;13961;51.178;4.448;2023-08-08T05:43:50;15.00;99.90
25949;DHT22;13961;51.178;4.448;2023-08-08T05:46:16;15.10;99.90
25949;DHT22;13961;51.178;4.448;2023-08-08T05:48:42;15.30;99.90
25949;DHT22;13961;51.178;4.448;2023-08-08T05:51:07;15.20;99.90
25949;DHT22;13961;51.178;4.448;2023-08-08T05:53:33;15.20;99.90
25949;DHT22;13961;51.178;4.448;2023-08-08T05:55:59;15.20;99.90
25949;DHT22;13961;51.178;4.448;2023-08-08T05:58:25;15.30;99.90
25949;DHT22;13961;51.178;4.448;2023-08-08T06:00:50;15.40;99.90
25949;DHT22;13961;51.178;4.448;2023-08-08T06:03:16;15.50;99.90
25949;DHT22;13961;51.178;4.448;2023-08-08T06:05:42;15.60;99.90
25949;DHT22;13961;51.178;4.448;2023-08-08T06:08:07;15.60;99.90
25949;DHT22;13961;51.178;4.448;2023-08-08T06:10:37;15.60;99.90
25949;DHT22;13961;51.178;4.448;2023-08-08T06:13:03;15.60;99.90
25949;DHT22;13961;51.178;4.448;2023-08-08T06:15:28;15.60;99.90
25949;DHT22;13961;51.178;4.448;2023-08-08T06:17:54;15.70;99.90
25949;DHT22;13961;51.178;4.448;2023-08-08T06:20:20;15.80;99.90
25949;DHT22;13961;51.178;4.448;2023-08-08T06:22:46;15.90;99.90
25949;DHT22;13961;51.178;4.448;2023-08-08T06:25:12;16.20;99.90
25949;DHT22;13961;51.178;4.448;2023-08-08T06:27:39;16.70;99.90
25949;DHT22;13961;51.178;4.448;2023-08-08T06:30:05;16.90;99.90
25949;DHT22;13961;51.178;4.448;2023-08-08T06:32:31;17.20;99.90
25949;DHT22;13961;51.178;4.448;2023-08-08T06:34:57;17.20;99.90
25949;DHT22;13961;51.178;4.448;2023-08-08T06:37:23;17.30;99.90
25949;DHT22;13961;51.178;4.448;2023-08-08T06:39:49;17.60;99.90
25949;DHT22;13961;51.178;4.448;2023-08-08T06:42:15;18.50;99.90
25949;DHT22;13961;51.178;4.448;2023-08-08T06:44:42;19.60;99.90
25949;DHT22;13961;51.178;4.448;2023-08-08T06:47:09;21.10;99.90
25949;DHT22;13961;51.178;4.448;2023-08-08T06:49:35;22.30;99.90
25949;DHT22;13961;51.178;4.448;2023-08-08T06:52:02;21.50;99.90
25949;DHT22;13961;51.178;4.448;2023-08-08T06:54:28;21.10;99.90
25949;DHT22;13961;51.178;4.448;2023-08-08T06:56:55;20.80;99.90
25949;DHT22;13961;51.178;4.448;2023-08-08T06:59:23;20.20;99.90
25949;DHT22;13961;51.178;4.448;2023-08-08T07:01:50;19.60;99.90
25949;DHT22;13961;51.178;4.448;2023-08-08T07:04:17;19.00;99.90
25949;DHT22;13961;51.178;4.448;2023-08-08T07:06:44;18.40;99.90
25949;DHT22;13961;51.178;4.448;2023-08-08T07:09:12;18.60;99.90
25949;DHT22;13961;51.178;4.448;2023-08-08T07:11:40;18.50;99.90
25949;DHT22;13961;51.178;4.448;2023-08-08T07:14:06;18.30;99.90
25949;DHT22;13961;51.178;4.448;2023-08-08T07:16:33;18.10;99.90
25949;DHT22;13961;51.178;4.448;2023-08-08T07:18:59;18.00;99.90
25949;DHT22;13961;51.178;4.448;2023-08-08T07:21:25;17.80;99.90
25949;DHT22;13961;51.178;4.448;2023-08-08T07:23:52;17.90;99.90
25949;DHT22;13961;51.178;4.448;2023-08-08T07:26:19;18.10;99.90
25949;DHT22;13961;51.178;4.448;2023-08-08T07:28:46;18.20;99.90
25949;DHT22;13961;51.178;4.448;2023-08-08T07:31:12;17.90;99.90
25949;DHT22;13961;51.178;4.448;2023-08-08T07:33:40;17.60;99.90
25949;DHT22;13961;51.178;4.448;2023-08-08T07:36:07;17.40;99.90
25949;DHT22;13961;51.178;4.448;2023-08-08T07:38:33;17.50;99.90
25949;DHT22;13961;51.178;4.448;2023-08-08T07:40:58;17.30;99.90
25949;DHT22;13961;51.178;4.448;2023-08-08T07:43:25;17.10;99.90
25949;DHT22;13961;51.178;4.448;2023-08-08T07:45:51;17.30;99.90
25949;DHT22;13961;51.178;4.448;2023-08-08T07:48:16;17.10;99.90
25949;DHT22;13961;51.178;4.448;2023-08-08T07:50:42;17.20;99.90
25949;DHT22;13961;51.178;4.448;2023-08-08T07:53:08;17.30;99.90
25949;DHT22;13961;51.178;4.448;2023-08-08T07:55:34;17.60;99.90
25949;DHT22;13961;51.178;4.448;2023-08-08T07:58:00;17.70;99.90
25949;DHT22;13961;51.178;4.448;2023-08-08T08:00:26;17.80;99.90
25949;DHT22;13961;51.178;4.448;2023-08-08T08:02:51;17.70;99.90
25949;DHT22;13961;51.178;4.448;2023-08-08T08:05:17;18.00;99.90
25949;DHT22;13961;51.178;4.448;2023-08-08T08:07:43;18.00;99.90
25949;DHT22;13961;51.178;4.448;2023-08-08T08:10:11;18.10;99.90
25949;DHT22;13961;51.178;4.448;2023-08-08T08:12:40;18.10;99.90
25949;DHT22;13961;51.178;4.448;2023-08-08T08:15:07;18.20;99.90
25949;DHT22;13961;51.178;4.448;2023-08-08T08:17:33;18.30;99.90
25949;DHT22;13961;51.178;4.448;2023-08-08T08:19:59;18.30;99.90
25949;DHT22;13961;51.178;4.448;2023-08-08T08:22:25;18.20;99.90
25949;DHT22;13961;51.178;4.448;2023-08-08T08:24:51;18.10;99.90
25949;DHT22;13961;51.178;4.448;2023-08-08T08:27:17;17.90;99.90
25949;DHT22;13961;51.178;4.448;2023-08-08T08:29:43;17.90;99.90
25949;DHT22;13961;51.178;4.448;2023-08-08T08:32:09;18.20;99.90
25949;DHT22;13961;51.178;4.448;2023-08-08T08:34:35;18.40;99.90
25949;DHT22;13961;51.178;4.448;2023-08-08T08:37:00;18.40;99.90
25949;DHT22;13961;51.178;4.448;2023-08-08T08:39:26;18.30;99.90
25949;DHT22;13961;51.178;4.448;2023-08-08T08:41:57;17.80;99.90
25949;DHT22;13961;51.178;4.448;2023-08-08T08:44:25;17.50;99.90
25949;DHT22;13961;51.178;4.448;2023-08-08T08:46:52;17.50;99.90
25949;DHT22;13961;51.178;4.448;2023-08-08T08:49:21;17.50;99.90
25949;DHT22;13961;51.178;4.448;2023-08-08T08:51:47;17.40;99.90
25949;DHT22;13961;51.178;4.448;2023-08-08T08:54:13;17.50;99.90
25949;DHT22;13961;51.178;4.448;2023-08-08T08:56:41;17.70;99.90
25949;DHT22;13961;51.178;4.448;2023-08-08T08:59:07;18.00;99.90
25949;DHT22;13961;51.178;4.448;2023-08-08T09:01:33;18.10;99.90
25949;DHT22;13961;51.178;4.448;2023-08-08T09:04:00;18.10;99.90
25949;DHT22;13961;51.178;4.448;2023-08-08T09:06:28;18.20;99.90
25949;DHT22;13961;51.178;4.448;2023-08-08T09:08:54;18.30;99.90
25949;DHT22;13961;51.178;4.448;2023-08-08T09:11:20;18.70;99.90
25949;DHT22;13961;51.178;4.448;2023-08-08T09:13:46;18.80;99.90
25949;DHT22;13961;51.178;4.448;2023-08-08T09:16:11;19.00;99.90
25949;DHT22;13961;51.178;4.448;2023-08-08T09:18:38;19.10;99.90
25949;DHT22;13961;51.178;4.448;2023-08-08T09:21:05;19.00;99.90
25949;DHT22;13961;51.178;4.448;2023-08-08T09:23:31;18.80;99.90
25949;DHT22;13961;51.178;4.448;2023-08-08T09:25:57;18.50;99.90
25949;DHT22;13961;51.178;4.448;2023-08-08T09:28:22;18.60;99.90
25949;DHT22;13961;51.178;4.448;2023-08-08T09:30:48;19.00;99.90
25949;DHT22;13961;51.178;4.448;2023-08-08T09:33:14;19.10;99.90
25949;DHT22;13961;51.178;4.448;2023-08-08T09:35:40;19.30;99.90
25949;DHT22;13961;51.178;4.448;2023-08-08T09:38:07;19.90;99.90
25949;DHT22;13961;51.178;4.448;2023-08-08T09:40:33;20.30;99.90
25949;DHT22;13961;51.178;4.448;2023-08-08T09:42:59;20.90;99.90
25949;DHT22;13961;51.178;4.448;2023-08-08T09:45:25;21.20;99.90
25949;DHT22;13961;51.178;4.448;2023-08-08T09:47:51;21.70;99.90
25949;DHT22;13961;51.178;4.448;2023-08-08T09:50:20;22.00;99.90
25949;DHT22;13961;51.178;4.448;2023-08-08T09:52:47;22.50;99.90
25949;DHT22;13961;51.178;4.448;2023-08-08T09:55:13;22.00;99.90
25949;DHT22;13961;51.178;4.448;2023-08-08T09:57:39;21.60;99.90
25949;DHT22;13961;51.178;4.448;2023-08-08T10:00:06;21.60;99.90
25949;DHT22;13961;51.178;4.448;2023-08-08T10:02:45;21.60;99.90
25949;DHT22;13961;51.178;4.448;2023-08-08T10:05:13;21.50;99.90
25949;DHT22;13961;51.178;4.448;2023-08-08T10:07:40;21.40;99.90
25949;DHT22;13961;51.178;4.448;2023-08-08T10:10:08;21.40;99.90
25949;DHT22;13961;51.178;4.448;2023-08-08T10:12:39;21.20;99.90
25949;DHT22;13961;51.178;4.448;2023-08-08T10:15:09;21.30;99.90
25949;DHT22;13961;51.178;4.448;2023-08-08T10:17:40;21.30;99.90
25949;DHT22;13961;51.178;4.448;2023-08-08T10:20:09;21.40;99.90
25949;DHT22;13961;51.178;4.448;2023-08-08T10:22:37;21.40;99.90
25949;DHT22;13961;51.178;4.448;2023-08-08T10:25:07;21.40;99.90
25949;DHT22;13961;51.178;4.448;2023-08-08T10:27:34;21.20;99.90
25949;DHT22;13961;51.178;4.448;2023-08-08T10:30:07;21.70;99.90
25949;DHT22;13961;51.178;4.448;2023-08-08T10:32:43;21.70;99.90
25949;DHT22;13961;51.178;4.448;2023-08-08T10:35:10;21.40;99.90
25949;DHT22;13961;51.178;4.448;2023-08-08T10:37:37;20.90;99.90
25949;DHT22;13961;51.178;4.448;2023-08-08T10:40:04;20.70;99.90
25949;DHT22;13961;51.178;4.448;2023-08-08T10:42:32;20.30;99.90
25949;DHT22;13961;51.178;4.448;2023-08-08T10:44:59;20.20;99.90
25949;DHT22;13961;51.178;4.448;2023-08-08T10:47:30;20.50;99.90
25949;DHT22;13961;51.178;4.448;2023-08-08T10:50:16;20.80;99.90
25949;DHT22;13961;51.178;4.448;2023-08-08T10:52:51;21.00;99.90
25949;DHT22;13961;51.178;4.448;2023-08-08T11:00:26;19.90;99.90
25949;DHT22;13961;51.178;4.448;2023-08-08T11:02:53;19.70;99.90
25949;DHT22;13961;51.178;4.448;2023-08-08T11:05:21;19.30;99.90
25949;DHT22;13961;51.178;4.448;2023-08-08T11:07:47;19.40;99.90
25949;DHT22;13961;51.178;4.448;2023-08-08T11:10:14;19.60;99.90
25949;DHT22;13961;51.178;4.448;2023-08-08T11:12:40;19.80;99.90
25949;DHT22;13961;51.178;4.448;2023-08-08T11:15:06;20.10;99.90
25949;DHT22;13961;51.178;4.448;2023-08-08T11:17:32;20.30;99.90
25949;DHT22;13961;51.178;4.448;2023-08-08T11:19:58;20.30;99.90
25949;DHT22;13961;51.178;4.448;2023-08-08T11:22:24;20.10;99.90
25949;DHT22;13961;51.178;4.448;2023-08-08T11:24:50;20.00;99.90
25949;DHT22;13961;51.178;4.448;2023-08-08T11:27:17;19.80;99.90
25949;DHT22;13961;51.178;4.448;2023-08-08T11:29:50;19.90;99.90
25949;DHT22;13961;51.178;4.448;2023-08-08T11:32:16;20.10;99.90
25949;DHT22;13961;51.178;4.448;2023-08-08T11:34:42;20.50;99.90
25949;DHT22;13961;51.178;4.448;2023-08-08T11:37:10;20.80;99.90
25949;DHT22;13961;51.178;4.448;2023-08-08T11:39:37;21.10;99.90
25949;DHT22;13961;51.178;4.448;2023-08-08T11:42:03;21.00;99.90
25949;DHT22;13961;51.178;4.448;2023-08-08T11:44:29;20.70;99.90
25949;DHT22;13961;51.178;4.448;2023-08-08T11:46:59;20.40;99.90
25949;DHT22;13961;51.178;4.448;2023-08-08T11:49:25;20.20;99.90
25949;DHT22;13961;51.178;4.448;2023-08-08T11:51:54;19.80;99.90
25949;DHT22;13961;51.178;4.448;2023-08-08T11:54:27;19.50;99.90
25949;DHT22;13961;51.178;4.448;2023-08-08T11:56:53;19.20;99.90
25949;DHT22;13961;51.178;4.448;2023-08-08T11:59:19;19.20;99.90
25949;DHT22;13961;51.178;4.448;2023-08-08T12:01:45;19.30;99.90
25949;DHT22;13961;51.178;4.448;2023-08-08T12:04:11;19.60;99.90
25949;DHT22;13961;51.178;4.448;2023-08-08T12:06:37;20.00;99.90
25949;DHT22;13961;51.178;4.448;2023-08-08T12:09:08;20.20;99.90
25949;DHT22;13961;51.178;4.448;2023-08-08T12:11:37;20.50;99.90
25949;DHT22;13961;51.178;4.448;2023-08-08T12:14:03;20.50;99.90
25949;DHT22;13961;51.178;4.448;2023-08-08T12:16:29;20.70;99.90
25949;DHT22;13961;51.178;4.448;2023-08-08T12:18:56;20.70;99.90
25949;DHT22;13961;51.178;4.448;2023-08-08T12:21:22;20.80;99.90
25949;DHT22;13961;51.178;4.448;2023-08-08T12:23:48;21.00;99.90
25949;DHT22;13961;51.178;4.448;2023-08-08T12:26:14;21.20;99.90
25949;DHT22;13961;51.178;4.448;2023-08-08T12:28:39;21.30;99.90
25949;DHT22;13961;51.178;4.448;2023-08-08T12:31:05;21.40;99.90
25949;DHT22;13961;51.178;4.448;2023-08-08T12:33:31;21.50;99.90
25949;DHT22;13961;51.178;4.448;2023-08-08T12:35:56;21.70;99.90
25949;DHT22;13961;51.178;4.448;2023-08-08T12:38:22;21.40;99.90
25949;DHT22;13961;51.178;4.448;2023-08-08T12:40:48;20.90;99.90
25949;DHT22;13961;51.178;4.448;2023-08-08T12:43:14;20.90;99.90
25949;DHT22;13961;51.178;4.448;2023-08-08T12:45:46;21.20;99.90
25949;DHT22;13961;51.178;4.448;2023-08-08T12:48:12;21.60;99.90
25949;DHT22;13961;51.178;4.448;2023-08-08T12:50:38;21.80;99.90
25949;DHT22;13961;51.178;4.448;2023-08-08T12:53:04;21.80;99.90
25949;DHT22;13961;51.178;4.448;2023-08-08T12:55:31;21.70;99.90
25949;DHT22;13961;51.178;4.448;2023-08-08T12:57:56;21.90;99.90
25949;DHT22;13961;51.178;4.448;2023-08-08T13:00:23;21.60;99.90
25949;DHT22;13961;51.178;4.448;2023-08-08T13:02:49;21.50;99.90
25949;DHT22;13961;51.178;4.448;2023-08-08T13:05:15;21.50;99.90
25949;DHT22;13961;51.178;4.448;2023-08-08T13:07:40;21.40;99.90
25949;DHT22;13961;51.178;4.448;2023-08-08T13:10:07;21.60;99.90
25949;DHT22;13961;51.178;4.448;2023-08-08T13:12:33;21.50;99.90
25949;DHT22;13961;51.178;4.448;2023-08-08T13:14:59;21.50;99.90
25949;DHT22;13961;51.178;4.448;2023-08-08T13:17:25;21.80;99.90
25949;DHT22;13961;51.178;4.448;2023-08-08T13:19:50;22.20;99.90
25949;DHT22;13961;51.178;4.448;2023-08-08T13:22:16;22.40;99.90
25949;DHT22;13961;51.178;4.448;2023-08-08T13:24:42;22.40;99.90
25949;DHT22;13961;51.178;4.448;2023-08-08T13:27:09;22.30;99.90
25949;DHT22;13961;51.178;4.448;2023-08-08T13:29:35;21.90;99.90
25949;DHT22;13961;51.178;4.448;2023-08-08T13:32:01;21.60;99.90
25949;DHT22;13961;51.178;4.448;2023-08-08T13:34:27;21.70;99.90
25949;DHT22;13961;51.178;4.448;2023-08-08T13:36:52;21.60;99.90
25949;DHT22;13961;51.178;4.448;2023-08-08T13:39:19;21.30;99.90
25949;DHT22;13961;51.178;4.448;2023-08-08T13:41:45;21.00;99.90
25949;DHT22;13961;51.178;4.448;2023-08-08T13:44:10;20.80;99.90
25949;DHT22;13961;51.178;4.448;2023-08-08T13:46:36;20.90;99.90
25949;DHT22;13961;51.178;4.448;2023-08-08T13:49:02;20.90;99.90
25949;DHT22;13961;51.178;4.448;2023-08-08T13:51:27;20.90;99.90
25949;DHT22;13961;51.178;4.448;2023-08-08T13:53:53;21.30;99.90
25949;DHT22;13961;51.178;4.448;2023-08-08T13:56:19;21.60;99.90
25949;DHT22;13961;51.178;4.448;2023-08-08T13:58:46;22.30;99.90
25949;DHT22;13961;51.178;4.448;2023-08-08T14:01:12;22.60;99.90
25949;DHT22;13961;51.178;4.448;2023-08-08T14:03:38;22.40;99.90
25949;DHT22;13961;51.178;4.448;2023-08-08T14:06:04;22.20;99.90
25949;DHT22;13961;51.178;4.448;2023-08-08T14:08:32;22.20;99.90
25949;DHT22;13961;51.178;4.448;2023-08-08T14:10:59;22.10;99.90
25949;DHT22;13961;51.178;4.448;2023-08-08T14:13:25;21.80;99.90
25949;DHT22;13961;51.178;4.448;2023-08-08T14:15:51;21.70;99.90
25949;DHT22;13961;51.178;4.448;2023-08-08T14:18:17;21.70;99.90
25949;DHT22;13961;51.178;4.448;2023-08-08T14:20:43;21.80;99.90
25949;DHT22;13961;51.178;4.448;2023-08-08T14:23:09;22.10;99.90
25949;DHT22;13961;51.178;4.448;2023-08-08T14:25:35;22.50;99.90
25949;DHT22;13961;51.178;4.448;2023-08-08T14:28:01;22.40;99.90
25949;DHT22;13961;51.178;4.448;2023-08-08T14:30:28;22.40;99.90
25949;DHT22;13961;51.178;4.448;2023-08-08T14:32:54;21.90;99.90
25949;DHT22;13961;51.178;4.448;2023-08-08T14:35:20;21.90;99.90
25949;DHT22;13961;51.178;4.448;2023-08-08T14:37:46;21.90;99.90
25949;DHT22;13961;51.178;4.448;2023-08-08T14:40:12;21.80;99.90
25949;DHT22;13961;51.178;4.448;2023-08-08T14:42:38;22.00;99.90
25949;DHT22;13961;51.178;4.448;2023-08-08T14:45:04;21.80;99.90
25949;DHT22;13961;51.178;4.448;2023-08-08T14:47:30;21.80;99.90
25949;DHT22;13961;51.178;4.448;2023-08-08T14:49:56;21.80;99.90
25949;DHT22;13961;51.178;4.448;2023-08-08T14:52:22;21.70;99.90
25949;DHT22;13961;51.178;4.448;2023-08-08T14:54:48;21.50;99.90
25949;DHT22;13961;51.178;4.448;2023-08-08T14:57:13;21.40;99.90
25949;DHT22;13961;51.178;4.448;2023-08-08T14:59:39;21.40;99.90
25949;DHT22;13961;51.178;4.448;2023-08-08T15:02:06;21.40;99.90
25949;DHT22;13961;51.178;4.448;2023-08-08T15:04:32;21.00;99.90
25949;DHT22;13961;51.178;4.448;2023-08-08T15:06:58;20.90;99.90
25949;DHT22;13961;51.178;4.448;2023-08-08T15:09:24;20.70;99.90
25949;DHT22;13961;51.178;4.448;2023-08-08T15:11:50;20.80;99.90
25949;DHT22;13961;51.178;4.448;2023-08-08T15:14:16;20.80;99.90
25949;DHT22;13961;51.178;4.448;2023-08-08T15:16:41;20.90;99.90
25949;DHT22;13961;51.178;4.448;2023-08-08T15:19:08;20.80;99.90
25949;DHT22;13961;51.178;4.448;2023-08-08T15:21:34;20.90;99.90
25949;DHT22;13961;51.178;4.448;2023-08-08T15:23:59;20.90;99.90
25949;DHT22;13961;51.178;4.448;2023-08-08T15:26:25;20.90;99.90
25949;DHT22;13961;51.178;4.448;2023-08-08T15:28:51;21.10;99.90
25949;DHT22;13961;51.178;4.448;2023-08-08T15:31:17;21.00;99.90
25949;DHT22;13961;51.178;4.448;2023-08-08T15:33:42;20.70;99.90